sensor_id;sensor_type;location;lat;lon;timestamp;pressure;altitude;pressure_sealevel;temperature;humidity
11349;BME280;5729;43.570;27.826;2023-03-15T00:00:52;98380.66;;;5.13;100.00
11349;BME280;5729;43.570;27.826;2023-03-15T00:03:19;98372.53;;;5.09;100.00
11349;BME280;5729;43.570;27.826;2023-03-15T00:05:47;98365.84;;;5.16;100.00
11349;BME280;5729;43.570;27.826;2023-03-15T00:08:13;98369.16;;;5.25;100.00
11349;BME280;5729;43.570;27.826;2023-03-15T00:10:43;98358.38;;;5.21;100.00
11349;BME280;5729;43.570;27.826;2023-03-15T00:13:09;98357.09;;;5.31;100.00
11349;BME280;5729;43.570;27.826;2023-03-15T00:15:35;98356.31;;;5.02;100.00
11349;BME280;5729;43.570;27.826;2023-03-15T00:18:16;98351.06;;;5.06;100.00
11349;BME280;5729;43.570;27.826;2023-03-15T00:20:42;98336.03;;;5.01;100.00
11349;BME280;5729;43.570;27.826;2023-03-15T00:23:07;98329.22;;;5.16;100.00
11349;BME280;5729;43.570;27.826;2023-03-15T00:25:34;98329.69;;;5.18;100.00
11349;BME280;5729;43.570;27.826;2023-03-15T00:27:59;98313.44;;;5.11;100.00
11349;BME280;5729;43.570;27.826;2023-03-15T00:30:25;98322.22;;;5.11;100.00
11349;BME280;5729;43.570;27.826;2023-03-15T00:32:53;98320.28;;;4.96;100.00
11349;BME280;5729;43.570;27.826;2023-03-15T00:35:20;98327.78;;;5.19;100.00
11349;BME280;5729;43.570;27.826;2023-03-15T00:37:46;98317.97;;;5.23;100.00
11349;BME280;5729;43.570;27.826;2023-03-15T00:40:12;98320.09;;;5.17;100.00
11349;BME280;5729;43.570;27.826;2023-03-15T00:42:38;98307.66;;;5.09;100.00
11349;BME280;5729;43.570;27.826;2023-03-15T00:45:04;98286.97;;;5.06;100.00
11349;BME280;5729;43.570;27.826;2023-03-15T00:47:30;98310.44;;;5.13;100.00
11349;BME280;5729;43.570;27.826;2023-03-15T00:49:56;98297.75;;;5.09;100.00
11349;BME280;5729;43.570;27.826;2023-03-15T00:52:21;98299.94;;;5.20;100.00
11349;BME280;5729;43.570;27.826;2023-03-15T00:54:54;98284.94;;;5.15;100.00
11349;BME280;5729;43.570;27.826;2023-03-15T00:57:20;98274.03;;;5.08;100.00
11349;BME280;5729;43.570;27.826;2023-03-15T00:59:46;98278.97;;;5.06;100.00
11349;BME280;5729;43.570;27.826;2023-03-15T01:02:11;98278.63;;;5.07;100.00
11349;BME280;5729;43.570;27.826;2023-03-15T01:04:37;98270.19;;;5.05;100.00
11349;BME280;5729;43.570;27.826;2023-03-15T01:07:03;98262.66;;;4.95;100.00
11349;BME280;5729;43.570;27.826;2023-03-15T01:09:28;98255.47;;;4.71;100.00
11349;BME280;5729;43.570;27.826;2023-03-15T01:11:56;98252.94;;;5.03;100.00
11349;BME280;5729;43.570;27.826;2023-03-15T01:14:22;98248.84;;;4.93;100.00
11349;BME280;5729;43.570;27.826;2023-03-15T01:16:48;98249.97;;;4.92;100.00
11349;BME280;5729;43.570;27.826;2023-03-15T01:19:14;98246.19;;;4.93;100.00
11349;BME280;5729;43.570;27.826;2023-03-15T01:21:40;98248.59;;;4.98;100.00
11349;BME280;5729;43.570;27.826;2023-03-15T01:24:06;98248.03;;;5.05;100.00
11349;BME280;5729;43.570;27.826;2023-03-15T01:26:31;98246.03;;;5.02;100.00
11349;BME280;5729;43.570;27.826;2023-03-15T01:28:57;98241.13;;;5.04;100.00
11349;BME280;5729;43.570;27.826;2023-03-15T01:31:28;98242.47;;;4.98;100.00
11349;BME280;5729;43.570;27.826;2023-03-15T01:33:55;98229.50;;;4.96;100.00
11349;BME280;5729;43.570;27.826;2023-03-15T01:36:21;98245.75;;;4.91;100.00
11349;BME280;5729;43.570;27.826;2023-03-15T01:38:46;98232.19;;;4.84;100.00
11349;BME280;5729;43.570;27.826;2023-03-15T01:41:14;98237.09;;;4.82;100.00
11349;BME280;5729;43.570;27.826;2023-03-15T01:43:40;98240.53;;;4.83;100.00
11349;BME280;5729;43.570;27.826;2023-03-15T01:48:43;98228.88;;;4.75;100.00
11349;BME280;5729;43.570;27.826;2023-03-15T01:53:50;98227.91;;;4.67;100.00
11349;BME280;5729;43.570;27.826;2023-03-15T01:56:17;98229.72;;;4.51;100.00
11349;BME280;5729;43.570;27.826;2023-03-15T01:58:44;98226.91;;;4.60;100.00
11349;BME280;5729;43.570;27.826;2023-03-15T02:01:10;98228.78;;;4.71;100.00
11349;BME280;5729;43.570;27.826;2023-03-15T02:03:42;98232.75;;;4.78;100.00
11349;BME280;5729;43.570;27.826;2023-03-15T02:06:16;98235.09;;;4.79;100.00
11349;BME280;5729;43.570;27.826;2023-03-15T02:08:45;98229.88;;;4.83;100.00
11349;BME280;5729;43.570;27.826;2023-03-15T02:11:15;98233.97;;;4.80;100.00
11349;BME280;5729;43.570;27.826;2023-03-15T02:13:42;98228.53;;;4.77;100.00
11349;BME280;5729;43.570;27.826;2023-03-15T02:16:08;98223.31;;;4.80;100.00
11349;BME280;5729;43.570;27.826;2023-03-15T02:18:33;98206.84;;;4.78;100.00
11349;BME280;5729;43.570;27.826;2023-03-15T02:26:54;98204.19;;;4.78;100.00
11349;BME280;5729;43.570;27.826;2023-03-15T02:29:21;98215.53;;;4.75;100.00
11349;BME280;5729;43.570;27.826;2023-03-15T02:31:47;98212.97;;;4.79;100.00
11349;BME280;5729;43.570;27.826;2023-03-15T02:34:13;98207.72;;;4.82;100.00
11349;BME280;5729;43.570;27.826;2023-03-15T02:36:38;98209.38;;;4.87;100.00
11349;BME280;5729;43.570;27.826;2023-03-15T02:39:18;98203.63;;;4.85;100.00
11349;BME280;5729;43.570;27.826;2023-03-15T02:41:48;98211.00;;;4.63;100.00
11349;BME280;5729;43.570;27.826;2023-03-15T02:44:18;98208.44;;;4.67;100.00
11349;BME280;5729;43.570;27.826;2023-03-15T02:46:49;98211.28;;;4.74;100.00
11349;BME280;5729;43.570;27.826;2023-03-15T02:49:17;98190.09;;;4.65;100.00
11349;BME280;5729;43.570;27.826;2023-03-15T02:51:45;98201.41;;;4.74;100.00
11349;BME280;5729;43.570;27.826;2023-03-15T02:54:11;98195.38;;;4.78;100.00
11349;BME280;5729;43.570;27.826;2023-03-15T02:56:36;98186.56;;;4.61;100.00
11349;BME280;5729;43.570;27.826;2023-03-15T02:59:02;98196.47;;;4.61;100.00
11349;BME280;5729;43.570;27.826;2023-03-15T03:01:27;98210.88;;;4.72;100.00
11349;BME280;5729;43.570;27.826;2023-03-15T03:03:53;98204.75;;;4.71;100.00
11349;BME280;5729;43.570;27.826;2023-03-15T03:06:18;98202.94;;;4.75;100.00
11349;BME280;5729;43.570;27.826;2023-03-15T03:08:44;98209.50;;;4.78;100.00
11349;BME280;5729;43.570;27.826;2023-03-15T03:11:12;98219.31;;;4.74;100.00
11349;BME280;5729;43.570;27.826;2023-03-15T03:13:39;98207.50;;;4.75;100.00
11349;BME280;5729;43.570;27.826;2023-03-15T03:16:05;98214.19;;;4.81;100.00
11349;BME280;5729;43.570;27.826;2023-03-15T03:18:31;98198.28;;;4.85;100.00
11349;BME280;5729;43.570;27.826;2023-03-15T03:21:04;98198.16;;;4.81;100.00
11349;BME280;5729;43.570;27.826;2023-03-15T03:23:32;98210.25;;;4.91;100.00
11349;BME280;5729;43.570;27.826;2023-03-15T03:26:01;98203.78;;;4.92;100.00
11349;BME280;5729;43.570;27.826;2023-03-15T03:28:29;98200.00;;;4.93;100.00
11349;BME280;5729;43.570;27.826;2023-03-15T03:30:55;98195.38;;;4.78;100.00
11349;BME280;5729;43.570;27.826;2023-03-15T03:33:21;98189.47;;;4.84;100.00
11349;BME280;5729;43.570;27.826;2023-03-15T03:35:48;98203.47;;;4.93;100.00
11349;BME280;5729;43.570;27.826;2023-03-15T03:38:14;98199.38;;;4.84;100.00
11349;BME280;5729;43.570;27.826;2023-03-15T03:40:40;98183.50;;;4.75;100.00
11349;BME280;5729;43.570;27.826;2023-03-15T03:43:06;98194.56;;;4.89;100.00
11349;BME280;5729;43.570;27.826;2023-03-15T03:45:32;98197.50;;;4.84;100.00
11349;BME280;5729;43.570;27.826;2023-03-15T03:47:58;98193.94;;;4.80;100.00
11349;BME280;5729;43.570;27.826;2023-03-15T03:50:23;98190.63;;;4.71;100.00
11349;BME280;5729;43.570;27.826;2023-03-15T03:52:49;98196.75;;;4.71;100.00
11349;BME280;5729;43.570;27.826;2023-03-15T03:55:15;98205.94;;;4.74;100.00
11349;BME280;5729;43.570;27.826;2023-03-15T03:57:41;98208.50;;;4.83;100.00
11349;BME280;5729;43.570;27.826;2023-03-15T04:00:09;98203.84;;;4.80;100.00
11349;BME280;5729;43.570;27.826;2023-03-15T04:02:36;98204.03;;;4.87;100.00
11349;BME280;5729;43.570;27.826;2023-03-15T04:05:02;98205.69;;;4.91;100.00
11349;BME280;5729;43.570;27.826;2023-03-15T04:07:27;98183.69;;;4.82;100.00
11349;BME280;5729;43.570;27.826;2023-03-15T04:09:53;98199.84;;;5.01;100.00
11349;BME280;5729;43.570;27.826;2023-03-15T04:12:18;98189.66;;;4.91;100.00
11349;BME280;5729;43.570;27.826;2023-03-15T04:14:44;98203.47;;;4.93;100.00
11349;BME280;5729;43.570;27.826;2023-03-15T04:17:09;98196.56;;;4.92;100.00
11349;BME280;5729;43.570;27.826;2023-03-15T04:19:35;98182.44;;;4.92;100.00
11349;BME280;5729;43.570;27.826;2023-03-15T04:22:01;98202.19;;;5.03;100.00
11349;BME280;5729;43.570;27.826;2023-03-15T04:24:32;98193.00;;;5.16;100.00
11349;BME280;5729;43.570;27.826;2023-03-15T04:26:58;98190.25;;;5.13;100.00
11349;BME280;5729;43.570;27.826;2023-03-15T04:29:23;98205.78;;;5.23;100.00
11349;BME280;5729;43.570;27.826;2023-03-15T04:31:49;98157.25;;;5.05;100.00
11349;BME280;5729;43.570;27.826;2023-03-15T04:34:15;98155.09;;;5.10;100.00
11349;BME280;5729;43.570;27.826;2023-03-15T04:36:41;98193.13;;;5.35;100.00
11349;BME280;5729;43.570;27.826;2023-03-15T04:39:07;98194.41;;;5.26;100.00
11349;BME280;5729;43.570;27.826;2023-03-15T04:41:34;98190.63;;;5.27;100.00
11349;BME280;5729;43.570;27.826;2023-03-15T04:44:03;98193.91;;;5.36;100.00
11349;BME280;5729;43.570;27.826;2023-03-15T04:46:30;98197.19;;;5.45;100.00
11349;BME280;5729;43.570;27.826;2023-03-15T04:48:56;98201.75;;;5.44;100.00
11349;BME280;5729;43.570;27.826;2023-03-15T04:51:21;98202.28;;;5.50;100.00
11349;BME280;5729;43.570;27.826;2023-03-15T04:53:47;98192.53;;;5.58;100.00
11349;BME280;5729;43.570;27.826;2023-03-15T04:56:12;98195.88;;;5.55;100.00
11349;BME280;5729;43.570;27.826;2023-03-15T04:58:37;98197.03;;;5.69;100.00
11349;BME280;5729;43.570;27.826;2023-03-15T05:01:03;98199.47;;;5.74;100.00
11349;BME280;5729;43.570;27.826;2023-03-15T05:03:28;98193.22;;;5.70;100.00
11349;BME280;5729;43.570;27.826;2023-03-15T05:05:54;98197.63;;;5.63;100.00
11349;BME280;5729;43.570;27.826;2023-03-15T05:08:19;98197.72;;;5.66;100.00
11349;BME280;5729;43.570;27.826;2023-03-15T05:10:45;98204.94;;;5.66;100.00
11349;BME280;5729;43.570;27.826;2023-03-15T05:13:11;98203.94;;;5.70;100.00
11349;BME280;5729;43.570;27.826;2023-03-15T05:15:36;98202.38;;;5.69;100.00
11349;BME280;5729;43.570;27.826;2023-03-15T05:18:01;98191.78;;;5.89;100.00
11349;BME280;5729;43.570;27.826;2023-03-15T05:20:28;98193.88;;;5.95;100.00
11349;BME280;5729;43.570;27.826;2023-03-15T05:22:53;98195.22;;;6.05;100.00
11349;BME280;5729;43.570;27.826;2023-03-15T05:25:19;98186.69;;;5.99;100.00
11349;BME280;5729;43.570;27.826;2023-03-15T05:27:44;98174.41;;;6.14;100.00
11349;BME280;5729;43.570;27.826;2023-03-15T05:30:11;98167.50;;;6.13;100.00
11349;BME280;5729;43.570;27.826;2023-03-15T05:32:36;98173.03;;;6.20;100.00
11349;BME280;5729;43.570;27.826;2023-03-15T05:35:05;98178.38;;;6.20;100.00
11349;BME280;5729;43.570;27.826;2023-03-15T05:37:31;98175.72;;;6.39;100.00
11349;BME280;5729;43.570;27.826;2023-03-15T05:39:57;98171.81;;;6.52;100.00
11349;BME280;5729;43.570;27.826;2023-03-15T05:42:23;98170.47;;;6.62;100.00
11349;BME280;5729;43.570;27.826;2023-03-15T05:44:52;98166.84;;;6.35;100.00
11349;BME280;5729;43.570;27.826;2023-03-15T05:47:17;98165.34;;;6.53;100.00
11349;BME280;5729;43.570;27.826;2023-03-15T05:49:43;98163.13;;;6.78;100.00
11349;BME280;5729;43.570;27.826;2023-03-15T05:52:09;98157.16;;;6.85;100.00
11349;BME280;5729;43.570;27.826;2023-03-15T05:54:34;98155.81;;;6.95;100.00
11349;BME280;5729;43.570;27.826;2023-03-15T05:56:59;98146.91;;;6.90;100.00
11349;BME280;5729;43.570;27.826;2023-03-15T05:59:25;98150.44;;;6.95;100.00
11349;BME280;5729;43.570;27.826;2023-03-15T06:01:50;98151.28;;;6.79;100.00
11349;BME280;5729;43.570;27.826;2023-03-15T06:04:16;98141.91;;;7.08;100.00
11349;BME280;5729;43.570;27.826;2023-03-15T06:06:41;98140.88;;;7.16;100.00
11349;BME280;5729;43.570;27.826;2023-03-15T06:09:07;98130.88;;;7.36;100.00
11349;BME280;5729;43.570;27.826;2023-03-15T06:11:32;98128.28;;;7.40;100.00
11349;BME280;5729;43.570;27.826;2023-03-15T06:13:57;98127.56;;;7.43;100.00
11349;BME280;5729;43.570;27.826;2023-03-15T06:16:23;98121.19;;;7.51;100.00
11349;BME280;5729;43.570;27.826;2023-03-15T06:18:48;98122.06;;;7.58;100.00
11349;BME280;5729;43.570;27.826;2023-03-15T06:21:14;98114.84;;;7.62;100.00
11349;BME280;5729;43.570;27.826;2023-03-15T06:23:39;98121.50;;;7.72;100.00
11349;BME280;5729;43.570;27.826;2023-03-15T06:26:05;98119.69;;;7.80;100.00
11349;BME280;5729;43.570;27.826;2023-03-15T06:28:30;98120.25;;;7.89;100.00
11349;BME280;5729;43.570;27.826;2023-03-15T06:30:55;98118.34;;;7.89;100.00
11349;BME280;5729;43.570;27.826;2023-03-15T06:33:21;98111.22;;;8.00;100.00
11349;BME280;5729;43.570;27.826;2023-03-15T06:35:47;98109.66;;;7.99;100.00
11349;BME280;5729;43.570;27.826;2023-03-15T06:38:12;98113.25;;;8.11;100.00
11349;BME280;5729;43.570;27.826;2023-03-15T06:40:39;98109.22;;;8.24;100.00
11349;BME280;5729;43.570;27.826;2023-03-15T06:43:04;98102.34;;;8.26;100.00
11349;BME280;5729;43.570;27.826;2023-03-15T06:45:31;98094.66;;;8.25;100.00
11349;BME280;5729;43.570;27.826;2023-03-15T06:47:57;98086.44;;;8.41;100.00
11349;BME280;5729;43.570;27.826;2023-03-15T06:50:22;98078.88;;;8.50;100.00
11349;BME280;5729;43.570;27.826;2023-03-15T06:52:48;98076.06;;;8.39;100.00
11349;BME280;5729;43.570;27.826;2023-03-15T06:55:13;98073.44;;;8.43;100.00
11349;BME280;5729;43.570;27.826;2023-03-15T06:57:43;98086.78;;;8.69;100.00
11349;BME280;5729;43.570;27.826;2023-03-15T07:00:09;98079.97;;;8.79;100.00
11349;BME280;5729;43.570;27.826;2023-03-15T07:02:36;98075.47;;;8.90;100.00
11349;BME280;5729;43.570;27.826;2023-03-15T07:05:05;98083.91;;;8.88;100.00
11349;BME280;5729;43.570;27.826;2023-03-15T07:07:30;98081.63;;;8.90;100.00
11349;BME280;5729;43.570;27.826;2023-03-15T07:09:56;98087.94;;;9.08;100.00
11349;BME280;5729;43.570;27.826;2023-03-15T07:12:21;98081.50;;;9.20;100.00
11349;BME280;5729;43.570;27.826;2023-03-15T07:14:47;98098.84;;;9.26;100.00
11349;BME280;5729;43.570;27.826;2023-03-15T07:17:13;98095.09;;;9.34;100.00
11349;BME280;5729;43.570;27.826;2023-03-15T07:19:39;98097.09;;;9.44;100.00
11349;BME280;5729;43.570;27.826;2023-03-15T07:22:04;98093.31;;;9.53;100.00
11349;BME280;5729;43.570;27.826;2023-03-15T07:24:30;98097.56;;;9.61;100.00
11349;BME280;5729;43.570;27.826;2023-03-15T07:26:55;98093.44;;;9.74;100.00
11349;BME280;5729;43.570;27.826;2023-03-15T07:29:22;98103.06;;;9.75;100.00
11349;BME280;5729;43.570;27.826;2023-03-15T07:31:49;98100.13;;;9.94;100.00
11349;BME280;5729;43.570;27.826;2023-03-15T07:34:14;98099.75;;;9.96;100.00
11349;BME280;5729;43.570;27.826;2023-03-15T07:36:40;98097.94;;;10.14;100.00
11349;BME280;5729;43.570;27.826;2023-03-15T07:39:05;98099.56;;;10.29;100.00
11349;BME280;5729;43.570;27.826;2023-03-15T07:41:31;98093.09;;;10.44;100.00
11349;BME280;5729;43.570;27.826;2023-03-15T07:43:56;98100.84;;;10.57;100.00
11349;BME280;5729;43.570;27.826;2023-03-15T07:46:22;98095.50;;;10.74;100.00
11349;BME280;5729;43.570;27.826;2023-03-15T07:48:47;98087.47;;;10.88;100.00
11349;BME280;5729;43.570;27.826;2023-03-15T07:51:13;98097.50;;;10.99;100.00
11349;BME280;5729;43.570;27.826;2023-03-15T07:53:38;98103.66;;;10.99;100.00
11349;BME280;5729;43.570;27.826;2023-03-15T07:56:04;98094.44;;;11.18;100.00
11349;BME280;5729;43.570;27.826;2023-03-15T07:58:30;98089.09;;;11.39;100.00
11349;BME280;5729;43.570;27.826;2023-03-15T08:00:56;98088.28;;;11.63;100.00
11349;BME280;5729;43.570;27.826;2023-03-15T08:03:23;98092.94;;;11.74;100.00
11349;BME280;5729;43.570;27.826;2023-03-15T08:05:49;98083.66;;;11.75;100.00
11349;BME280;5729;43.570;27.826;2023-03-15T08:08:15;98080.59;;;11.80;100.00
11349;BME280;5729;43.570;27.826;2023-03-15T08:10:42;98095.56;;;12.09;100.00
11349;BME280;5729;43.570;27.826;2023-03-15T08:13:08;98096.69;;;12.29;100.00
11349;BME280;5729;43.570;27.826;2023-03-15T08:15:34;98074.69;;;12.27;100.00
11349;BME280;5729;43.570;27.826;2023-03-15T08:17:59;98076.59;;;12.38;100.00
11349;BME280;5729;43.570;27.826;2023-03-15T08:20:25;98081.09;;;12.65;100.00
11349;BME280;5729;43.570;27.826;2023-03-15T08:22:50;98091.50;;;13.33;100.00
11349;BME280;5729;43.570;27.826;2023-03-15T08:25:19;98090.41;;;14.80;100.00
11349;BME280;5729;43.570;27.826;2023-03-15T08:27:44;98065.75;;;16.74;78.67
11349;BME280;5729;43.570;27.826;2023-03-15T08:30:12;98088.84;;;19.24;60.77
11349;BME280;5729;43.570;27.826;2023-03-15T08:32:38;98078.69;;;21.83;49.03
11349;BME280;5729;43.570;27.826;2023-03-15T08:35:05;98074.84;;;23.46;44.33
11349;BME280;5729;43.570;27.826;2023-03-15T08:37:31;98082.50;;;24.67;39.40
11349;BME280;5729;43.570;27.826;2023-03-15T08:39:57;98088.56;;;25.15;36.42
11349;BME280;5729;43.570;27.826;2023-03-15T08:42:28;98085.81;;;25.15;35.91
11349;BME280;5729;43.570;27.826;2023-03-15T08:44:54;98087.69;;;25.24;34.87
11349;BME280;5729;43.570;27.826;2023-03-15T08:47:24;98088.56;;;25.15;34.23
11349;BME280;5729;43.570;27.826;2023-03-15T08:49:49;98101.88;;;25.17;33.58
11349;BME280;5729;43.570;27.826;2023-03-15T08:52:18;98083.56;;;25.89;32.82
11349;BME280;5729;43.570;27.826;2023-03-15T08:54:43;98078.03;;;26.30;32.42
11349;BME280;5729;43.570;27.826;2023-03-15T08:57:09;98077.66;;;26.22;32.47
11349;BME280;5729;43.570;27.826;2023-03-15T08:59:34;98088.38;;;26.35;31.38
11349;BME280;5729;43.570;27.826;2023-03-15T09:02:00;98080.91;;;26.93;30.57
11349;BME280;5729;43.570;27.826;2023-03-15T09:04:25;98083.66;;;27.67;30.81
11349;BME280;5729;43.570;27.826;2023-03-15T09:06:51;98080.34;;;28.16;29.09
11349;BME280;5729;43.570;27.826;2023-03-15T09:09:17;98088.78;;;27.85;28.62
11349;BME280;5729;43.570;27.826;2023-03-15T09:11:43;98077.34;;;27.66;29.38
11349;BME280;5729;43.570;27.826;2023-03-15T09:14:08;98074.94;;;28.78;28.17
11349;BME280;5729;43.570;27.826;2023-03-15T09:16:34;98071.88;;;28.59;27.85
11349;BME280;5729;43.570;27.826;2023-03-15T09:18:59;98064.56;;;29.17;26.99
11349;BME280;5729;43.570;27.826;2023-03-15T09:21:25;98051.72;;;29.94;26.61
11349;BME280;5729;43.570;27.826;2023-03-15T09:23:52;98059.75;;;30.91;25.71
11349;BME280;5729;43.570;27.826;2023-03-15T09:26:17;98062.59;;;29.92;26.00
11349;BME280;5729;43.570;27.826;2023-03-15T09:28:42;98050.97;;;28.64;27.24
11349;BME280;5729;43.570;27.826;2023-03-15T09:31:08;98046.41;;;28.61;27.88
11349;BME280;5729;43.570;27.826;2023-03-15T09:33:34;98047.63;;;28.21;27.52
11349;BME280;5729;43.570;27.826;2023-03-15T09:35:59;98055.84;;;27.44;28.12
11349;BME280;5729;43.570;27.826;2023-03-15T09:38:25;98051.25;;;27.36;29.24
11349;BME280;5729;43.570;27.826;2023-03-15T09:40:55;98043.00;;;27.95;27.85
11349;BME280;5729;43.570;27.826;2023-03-15T09:44:34;98043.88;;;27.22;27.04
11349;BME280;5729;43.570;27.826;2023-03-15T09:46:28;98044.03;;;27.50;27.56
11349;BME280;5729;43.570;27.826;2023-03-15T09:51:41;98030.19;;;27.98;27.89
11349;BME280;5729;43.570;27.826;2023-03-15T09:54:15;98039.75;;;28.02;26.72
11349;BME280;5729;43.570;27.826;2023-03-15T09:57:19;98025.78;;;27.69;27.84
11349;BME280;5729;43.570;27.826;2023-03-15T09:59:50;98007.91;;;26.01;29.08
11349;BME280;5729;43.570;27.826;2023-03-15T10:02:37;98020.41;;;25.36;29.57
11349;BME280;5729;43.570;27.826;2023-03-15T10:05:15;98007.75;;;26.62;28.99
11349;BME280;5729;43.570;27.826;2023-03-15T10:07:43;98007.50;;;27.34;28.68
11349;BME280;5729;43.570;27.826;2023-03-15T10:10:25;98009.31;;;28.08;27.48
11349;BME280;5729;43.570;27.826;2023-03-15T10:13:07;98007.69;;;26.51;29.22
11349;BME280;5729;43.570;27.826;2023-03-15T10:21:40;98005.44;;;25.22;30.07
11349;BME280;5729;43.570;27.826;2023-03-15T10:24:17;98000.50;;;24.62;30.18
11349;BME280;5729;43.570;27.826;2023-03-15T10:26:43;97981.88;;;23.98;29.78
11349;BME280;5729;43.570;27.826;2023-03-15T10:29:14;97993.59;;;23.69;31.71
11349;BME280;5729;43.570;27.826;2023-03-15T10:31:43;97994.91;;;24.71;30.95
11349;BME280;5729;43.570;27.826;2023-03-15T10:34:11;97993.63;;;23.99;31.85
11349;BME280;5729;43.570;27.826;2023-03-15T10:36:36;97985.22;;;24.02;32.81
11349;BME280;5729;43.570;27.826;2023-03-15T10:39:02;97976.28;;;23.93;33.39
11349;BME280;5729;43.570;27.826;2023-03-15T10:41:42;97969.63;;;23.99;33.15
11349;BME280;5729;43.570;27.826;2023-03-15T10:44:18;97978.97;;;23.63;33.10
11349;BME280;5729;43.570;27.826;2023-03-15T10:49:33;97974.69;;;22.91;34.52
11349;BME280;5729;43.570;27.826;2023-03-15T10:51:59;97959.69;;;22.50;36.05
11349;BME280;5729;43.570;27.826;2023-03-15T10:54:25;97968.34;;;22.66;36.16
11349;BME280;5729;43.570;27.826;2023-03-15T10:57:05;97962.69;;;22.79;37.41
11349;BME280;5729;43.570;27.826;2023-03-15T10:59:37;97950.13;;;23.59;36.28
11349;BME280;5729;43.570;27.826;2023-03-15T11:02:22;97946.84;;;23.84;35.65
11349;BME280;5729;43.570;27.826;2023-03-15T11:07:26;97949.53;;;23.07;36.20
11349;BME280;5729;43.570;27.826;2023-03-15T11:09:53;97950.25;;;23.94;35.69
11349;BME280;5729;43.570;27.826;2023-03-15T11:12:24;97946.66;;;23.87;34.13
11349;BME280;5729;43.570;27.826;2023-03-15T11:14:55;97930.53;;;24.10;34.42
11349;BME280;5729;43.570;27.826;2023-03-15T11:17:28;97940.31;;;23.81;34.78
11349;BME280;5729;43.570;27.826;2023-03-15T11:20:00;97943.44;;;22.70;36.83
11349;BME280;5729;43.570;27.826;2023-03-15T11:22:41;97938.41;;;22.35;36.86
11349;BME280;5729;43.570;27.826;2023-03-15T11:25:14;97942.06;;;20.46;40.92
11349;BME280;5729;43.570;27.826;2023-03-15T11:27:41;97943.31;;;20.54;41.03
11349;BME280;5729;43.570;27.826;2023-03-15T11:30:17;97945.34;;;20.10;42.19
11349;BME280;5729;43.570;27.826;2023-03-15T11:32:45;97935.56;;;20.53;41.62
11349;BME280;5729;43.570;27.826;2023-03-15T11:35:14;97931.41;;;20.17;42.63
11349;BME280;5729;43.570;27.826;2023-03-15T11:38:01;97943.00;;;19.78;46.10
11349;BME280;5729;43.570;27.826;2023-03-15T11:40:33;97927.81;;;20.60;43.91
11349;BME280;5729;43.570;27.826;2023-03-15T11:43:21;97939.72;;;21.70;41.57
11349;BME280;5729;43.570;27.826;2023-03-15T11:48:43;97927.53;;;21.81;40.01
11349;BME280;5729;43.570;27.826;2023-03-15T11:51:12;97928.69;;;20.97;41.60
11349;BME280;5729;43.570;27.826;2023-03-15T11:54:13;97925.31;;;19.91;44.23
11349;BME280;5729;43.570;27.826;2023-03-15T12:01:35;97914.16;;;18.73;51.82
11349;BME280;5729;43.570;27.826;2023-03-15T12:06:49;97902.13;;;18.58;51.32
11349;BME280;5729;43.570;27.826;2023-03-15T12:12:03;97908.38;;;18.59;56.06
11349;BME280;5729;43.570;27.826;2023-03-15T12:14:30;97917.16;;;18.88;55.93
11349;BME280;5729;43.570;27.826;2023-03-15T12:19:59;97910.72;;;18.57;57.15
11349;BME280;5729;43.570;27.826;2023-03-15T12:22:30;97914.03;;;18.64;54.86
11349;BME280;5729;43.570;27.826;2023-03-15T12:24:59;97911.69;;;17.99;58.80
11349;BME280;5729;43.570;27.826;2023-03-15T12:27:29;97924.81;;;17.47;62.52
11349;BME280;5729;43.570;27.826;2023-03-15T12:29:59;97911.31;;;17.56;63.78
11349;BME280;5729;43.570;27.826;2023-03-15T12:32:28;97920.84;;;17.64;64.06
11349;BME280;5729;43.570;27.826;2023-03-15T12:35:07;97912.50;;;17.84;64.39
11349;BME280;5729;43.570;27.826;2023-03-15T12:37:43;97920.09;;;18.30;60.47
11349;BME280;5729;43.570;27.826;2023-03-15T12:50:37;97932.56;;;18.95;54.59
11349;BME280;5729;43.570;27.826;2023-03-15T12:56:20;97940.63;;;18.47;57.62
11349;BME280;5729;43.570;27.826;2023-03-15T12:58:51;97935.88;;;17.97;60.97
11349;BME280;5729;43.570;27.826;2023-03-15T13:01:17;97945.63;;;17.69;62.53
11349;BME280;5729;43.570;27.826;2023-03-15T13:03:43;97929.66;;;17.39;65.59
11349;BME280;5729;43.570;27.826;2023-03-15T13:11:32;97931.16;;;16.26;77.18
11349;BME280;5729;43.570;27.826;2023-03-15T13:18:08;97922.88;;;16.33;84.67
11349;BME280;5729;43.570;27.826;2023-03-15T13:22:51;97905.03;;;15.77;89.14
11349;BME280;5729;43.570;27.826;2023-03-15T13:25:42;97918.69;;;15.73;88.21
11349;BME280;5729;43.570;27.826;2023-03-15T13:28:20;97893.41;;;15.56;90.66
11349;BME280;5729;43.570;27.826;2023-03-15T13:30:49;97914.75;;;16.14;85.30
11349;BME280;5729;43.570;27.826;2023-03-15T13:33:29;97908.69;;;16.06;87.94
11349;BME280;5729;43.570;27.826;2023-03-15T13:35:58;97906.56;;;15.78;94.52
11349;BME280;5729;43.570;27.826;2023-03-15T13:38:32;97900.06;;;15.52;97.92
11349;BME280;5729;43.570;27.826;2023-03-15T13:41:01;97908.38;;;15.21;100.00
11349;BME280;5729;43.570;27.826;2023-03-15T13:43:33;97901.22;;;15.11;100.00
11349;BME280;5729;43.570;27.826;2023-03-15T13:46:00;97905.09;;;14.64;100.00
11349;BME280;5729;43.570;27.826;2023-03-15T13:48:31;97903.22;;;14.84;100.00
11349;BME280;5729;43.570;27.826;2023-03-15T13:53:29;97902.13;;;14.55;100.00
11349;BME280;5729;43.570;27.826;2023-03-15T13:55:57;97904.38;;;14.02;100.00
11349;BME280;5729;43.570;27.826;2023-03-15T13:58:22;97889.31;;;14.28;100.00
11349;BME280;5729;43.570;27.826;2023-03-15T14:00:58;97878.81;;;14.03;100.00
11349;BME280;5729;43.570;27.826;2023-03-15T14:03:24;97895.44;;;14.05;100.00
11349;BME280;5729;43.570;27.826;2023-03-15T14:05:53;97895.50;;;14.02;100.00
11349;BME280;5729;43.570;27.826;2023-03-15T14:11:06;97905.31;;;13.89;100.00
11349;BME280;5729;43.570;27.826;2023-03-15T14:13:46;97897.53;;;13.94;100.00
11349;BME280;5729;43.570;27.826;2023-03-15T14:18:54;97880.03;;;13.72;100.00